Fidato — PB5970 — position and weather

sailwx.info

Track history (hours):
 
Tides and Currents Weather Stations Pressure Air Temp Water Temp Dewpoint Dewpoint Depression Visibility Wind Speed Wind Dir Waves Ship Positions

Fidato

Last reported at 2016-Apr-30 20:33 UTC. Time now 2016-Apr-30 20:44 UTC.
Position N 51°49' E 004°42'.

Length 135 m; draft 2.5 m.

Type: Ship. MMSI: 244670975.

Date/timePositionNaut miles runAvg speedWind from/ knotsBaromVisibWave heightAir tempDewpointWater temp
2016-Apr-30 20:33N 51°49' E 004°42'0 0.0
2016-Apr-30 19:33N 51°49' E 004°42'0 0.0
2016-Apr-30 18:34N 51°49' E 004°42'0 0.0
2016-Apr-30 17:33N 51°49' E 004°42'0 0.0
2016-Apr-30 16:33N 51°49' E 004°42'0 0.0
2016-Apr-30 15:33N 51°49' E 004°42'0 0.0
2016-Apr-30 14:33N 51°49' E 004°42'0 0.0
2016-Apr-30 13:33N 51°49' E 004°42'0 0.0
2016-Apr-30 12:33N 51°49' E 004°42'0 0.0
2016-Apr-30 11:33N 51°49' E 004°42'0 0.0
2016-Apr-30 10:33N 51°49' E 004°42'0 0.0
2016-Apr-30 09:33N 51°49' E 004°42'0 0.0
2016-Apr-30 08:33N 51°49' E 004°42'0 0.0
2016-Apr-30 07:33N 51°49' E 004°42'0 0.0
2016-Apr-30 06:33N 51°49' E 004°42'0 0.0
2016-Apr-30 05:33N 51°49' E 004°42'0 0.0
2016-Apr-30 04:33N 51°49' E 004°42'0 0.0
2016-Apr-30 03:33N 51°49' E 004°42'0 0.0
2016-Apr-30 02:33N 51°49' E 004°42'0 0.0
2016-Apr-30 01:33N 51°49' E 004°42'0 0.0
2016-Apr-30 00:33N 51°49' E 004°42'0 0.0
2016-Apr-29 23:33N 51°49' E 004°42'0 0.0
2016-Apr-29 22:33N 51°49' E 004°42'0 0.0
2016-Apr-29 21:33N 51°49' E 004°42'0 0.0
2016-Apr-29 20:33N 51°49' E 004°42'0 0.0
2016-Apr-29 19:33N 51°49' E 004°42'0 0.0
2016-Apr-29 18:33N 51°49' E 004°42'0 0.0
2016-Apr-29 17:33N 51°49' E 004°42'0 0.0
2016-Apr-29 16:33N 51°49' E 004°42'0 0.0
2016-Apr-29 15:33N 51°49' E 004°42'0 0.0
2016-Apr-29 14:33N 51°49' E 004°42'0 0.0
2016-Apr-29 13:33N 51°49' E 004°42'0 0.0
2016-Apr-29 12:33N 51°49' E 004°42'0 0.0
2016-Apr-29 11:33N 51°49' E 004°42'0 0.0
2016-Apr-29 10:33N 51°49' E 004°42'0 0.0
2016-Apr-29 09:33N 51°49' E 004°42'0 0.0
2016-Apr-29 07:26N 51°49' E 004°42'0 0.0
2016-Apr-29 06:31N 51°49' E 004°42'0 0.0
2016-Apr-29 05:33N 51°49' E 004°42'0 0.0
2016-Apr-29 03:33N 51°49' E 004°42'0 0.0
2016-Apr-29 02:31N 51°49' E 004°42'0 0.0
2016-Apr-29 01:28N 51°49' E 004°42'0 0.0
2016-Apr-28 19:23N 51°49' E 004°42'0 0.0
2016-Apr-28 04:24N 51°49' E 004°42'0 0.0
2016-Apr-28 03:26N 51°49' E 004°42'0 0.0
2016-Apr-28 02:32N 51°49' E 004°42'0 0.0
2016-Apr-28 01:33N 51°49' E 004°42'0 0.0
2016-Apr-28 00:21N 51°49' E 004°42'0 0.0
2016-Apr-27 23:24N 51°49' E 004°42'0 0.0
2016-Apr-27 22:29N 51°49' E 004°42'0 0.0
2016-Apr-27 21:32N 51°49' E 004°42'0 0.0
2016-Apr-27 20:16N 51°49' E 004°42'0 0.0
2016-Apr-27 17:32N 51°49' E 004°42'0 0.0
2016-Apr-27 16:30N 51°49' E 004°42'0 0.0
2016-Apr-27 15:26N 51°49' E 004°42'0 0.0
2016-Apr-27 14:23N 51°49' E 004°42'0 0.0
2016-Apr-27 13:32N 51°49' E 004°42'0 0.0
2016-Apr-27 12:33N 51°49' E 004°42'0 0.1
2016-Apr-27 10:32N 51°49' E 004°42'6 6.4
2016-Apr-27 09:32N 51°43' E 004°38'19 5.9
2016-Apr-27 06:15N 51°31' E 004°13'4 4.9
2016-Apr-27 05:30N 51°27' E 004°14'0 0.0
2016-Apr-27 04:33N 51°27' E 004°14'0 0.0
2016-Apr-27 03:30N 51°27' E 004°14'0 0.0
2016-Apr-27 02:33N 51°27' E 004°14'0 0.0
2016-Apr-27 01:31N 51°27' E 004°14'0 0.0
2016-Apr-27 00:32N 51°27' E 004°14'0 0.0
2016-Apr-26 23:33N 51°27' E 004°14'0 0.0
2016-Apr-26 22:33N 51°27' E 004°14'0 0.0
2016-Apr-26 21:33N 51°27' E 004°14'0 0.0
2016-Apr-26 20:32N 51°27' E 004°14'0 0.0
2016-Apr-26 19:33N 51°27' E 004°14'1 1.1
2016-Apr-26 18:31N 51°26' E 004°14'2 1.9
2016-Apr-26 17:33N 51°24' E 004°14'9 8.7
2016-Apr-26 16:33N 51°17' E 004°21'3 2.7
2016-Apr-26 15:33N 51°15' E 004°24'0 0.0
2016-Apr-26 14:33N 51°15' E 004°24'0 0.0
2016-Apr-26 13:33N 51°15' E 004°24'0 0.0
2016-Apr-26 12:33N 51°15' E 004°24'0 0.0
2016-Apr-26 11:33N 51°15' E 004°24'0 0.0
2016-Apr-26 10:33N 51°15' E 004°24'0 0.0
2016-Apr-26 09:33N 51°15' E 004°24'0 0.0
2016-Apr-26 08:33N 51°15' E 004°24'0 0.0
2016-Apr-26 07:33N 51°15' E 004°24'0 0.0
2016-Apr-26 06:33N 51°15' E 004°24'0 0.0
2016-Apr-26 05:33N 51°15' E 004°24'0 0.0
2016-Apr-26 04:33N 51°15' E 004°24'0 0.0
2016-Apr-26 03:33N 51°15' E 004°24'0 0.0
2016-Apr-26 02:33N 51°15' E 004°24'0 0.0
2016-Apr-26 01:33N 51°15' E 004°24'0 0.0
2016-Apr-26 00:33N 51°15' E 004°24'0 0.0
2016-Apr-25 23:33N 51°15' E 004°24'0 0.0
2016-Apr-25 22:33N 51°15' E 004°24'0 0.0
2016-Apr-25 21:33N 51°15' E 004°24'0 0.0
2016-Apr-25 20:33N 51°15' E 004°24'0 0.0
2016-Apr-25 19:33N 51°15' E 004°24'0 0.0
2016-Apr-25 18:33N 51°15' E 004°24'0 0.0
2016-Apr-25 17:33N 51°15' E 004°24'0 0.0
2016-Apr-25 16:33N 51°15' E 004°24'0 0.0
2016-Apr-25 15:33N 51°15' E 004°24'0 0.0
2016-Apr-25 14:33N 51°15' E 004°24'0 0.1
2016-Apr-25 13:33N 51°15' E 004°24'0 0.0
2016-Apr-25 12:33N 51°15' E 004°25'0 0.0
2016-Apr-25 11:33N 51°15' E 004°25'0 0.0
2016-Apr-25 10:33N 51°15' E 004°25'0 0.0
2016-Apr-25 09:33N 51°15' E 004°25'0 0.0
2016-Apr-25 08:33N 51°15' E 004°25'0 0.3
2016-Apr-25 07:33N 51°16' E 004°25'0 0.0
2016-Apr-25 06:33N 51°16' E 004°25'0 0.0
2016-Apr-25 05:33N 51°16' E 004°25'0 0.0
2016-Apr-25 04:33N 51°16' E 004°25'0 0.0
2016-Apr-25 03:33N 51°16' E 004°25'0 0.0
2016-Apr-25 02:33N 51°16' E 004°25'0 0.0
2016-Apr-25 01:33N 51°16' E 004°25'0 0.0
2016-Apr-25 00:33N 51°16' E 004°25'0 0.0
2016-Apr-24 23:33N 51°16' E 004°25'0 0.0
2016-Apr-24 22:33N 51°16' E 004°25'0 0.0
2016-Apr-24 21:33N 51°16' E 004°25'0 0.0
2016-Apr-24 20:33N 51°16' E 004°25'0 0.0
2016-Apr-24 19:33N 51°16' E 004°25'0 0.0
2016-Apr-24 18:33N 51°16' E 004°25'0 0.0
2016-Apr-24 17:33N 51°16' E 004°25'0 0.0
2016-Apr-24 16:33N 51°16' E 004°25'0 0.0
2016-Apr-24 15:33N 51°16' E 004°25'0 0.0
2016-Apr-24 14:33N 51°16' E 004°25'0 0.0
2016-Apr-24 13:33N 51°16' E 004°25'0 0.0
2016-Apr-24 12:33N 51°16' E 004°25'0 0.0
2016-Apr-24 11:33N 51°16' E 004°25'0 0.3
2016-Apr-24 10:33N 51°16' E 004°24'4 4.3
2016-Apr-24 09:33N 51°19' E 004°19'3 2.7
2016-Apr-24 08:33N 51°21' E 004°16'3 2.5
2016-Apr-24 07:33N 51°22' E 004°13'0 0.1
2016-Apr-24 06:33N 51°22' E 004°13'7 6.9
2016-Apr-24 05:33N 51°17' E 004°20'3 2.8
2016-Apr-24 04:33N 51°19' E 004°19'2 2.1
2016-Apr-24 03:33N 51°21' E 004°18'0 0.0
2016-Apr-24 02:33N 51°21' E 004°18'0 0.0
2016-Apr-24 01:33N 51°21' E 004°18'0 0.0
2016-Apr-24 00:33N 51°21' E 004°18'0 0.0
2016-Apr-23 23:31N 51°21' E 004°18'0 0.0
2016-Apr-23 22:33N 51°21' E 004°18'0 0.0
2016-Apr-23 21:33N 51°21' E 004°18'0 0.0
2016-Apr-23 20:33N 51°21' E 004°18'0 0.0
2016-Apr-23 19:33N 51°21' E 004°17'0 0.4
2016-Apr-23 18:28N 51°22' E 004°17'0 0.0
2016-Apr-23 17:33N 51°22' E 004°17'0 0.0
2016-Apr-23 16:33N 51°22' E 004°17'0 0.0
2016-Apr-23 15:29N 51°22' E 004°17'0 0.0
2016-Apr-23 14:33N 51°22' E 004°17'0 0.0
2016-Apr-23 13:33N 51°22' E 004°17'0 0.0
2016-Apr-23 12:33N 51°22' E 004°17'0 0.0
2016-Apr-23 11:33N 51°22' E 004°17'0 0.0
2016-Apr-23 10:32N 51°22' E 004°17'0 0.0
2016-Apr-23 09:26N 51°22' E 004°17'0 0.0
2016-Apr-23 08:32N 51°22' E 004°17'0 0.0
2016-Apr-23 07:33N 51°22' E 004°17'0 0.0
2016-Apr-23 06:33N 51°22' E 004°17'0 0.0
2016-Apr-23 05:30N 51°22' E 004°17'0 0.0
2016-Apr-23 04:33N 51°22' E 004°17'0 0.0
2016-Apr-23 03:33N 51°22' E 004°17'0 0.0
2016-Apr-23 02:33N 51°22' E 004°17'0 0.0
2016-Apr-23 01:31N 51°22' E 004°17'0 0.0
2016-Apr-23 00:33N 51°22' E 004°17'0 0.1
2016-Apr-22 23:33N 51°22' E 004°17'0 0.0
2016-Apr-22 22:33N 51°22' E 004°17'0 0.0
2016-Apr-22 21:33N 51°22' E 004°17'0 0.0
2016-Apr-22 20:33N 51°22' E 004°17'0 0.0
2016-Apr-22 19:33N 51°22' E 004°17'1 0.8
2016-Apr-22 18:31N 51°22' E 004°18'6 5.6
2016-Apr-22 17:32N 51°27' E 004°14'3 3.3
2016-Apr-22 16:33N 51°30' E 004°16'0 0.0
2016-Apr-22 15:33N 51°30' E 004°16'0 0.0
2016-Apr-22 14:31N 51°30' E 004°16'0 0.0
2016-Apr-22 13:32N 51°30' E 004°16'0 0.0
2016-Apr-22 12:33N 51°30' E 004°16'0 0.0
2016-Apr-22 11:19N 51°30' E 004°16'0 0.0
2016-Apr-22 10:32N 51°30' E 004°16'0 0.0
2016-Apr-22 08:33N 51°30' E 004°16'0 0.1
2016-Apr-22 04:30N 51°30' E 004°15'0 0.0
2016-Apr-22 00:19N 51°30' E 004°15'0 0.0
2016-Apr-21 23:03N 51°30' E 004°15'0 0.5
2016-Apr-21 22:25N 51°30' E 004°14'4 3.7
2016-Apr-21 21:22N 51°34' E 004°13'17 5.9
2016-Apr-21 18:27N 51°43' E 004°37'9 9.0
2016-Apr-21 17:30N 51°48' E 004°48'66 8.2
2016-Apr-21 09:33N 51°40' E 006°33'7 7.2
2016-Apr-21 08:33N 51°34' E 006°41'8 7.8
2016-Apr-21 07:32N 51°27' E 006°43'7 7.1
2016-Apr-21 06:32N 51°19' E 006°44'7 6.9
2016-Apr-21 05:33N 51°13' E 006°44'7 6.4
2016-Apr-21 04:32N 51°08' E 006°51'  
Track history (hours):
 
Tides and Currents Weather Stations Pressure Air Temp Water Temp Dewpoint Dewpoint Depression Visibility Wind Speed Wind Dir Waves Ship Positions

Fidato

Last reported at 2016-Apr-30 20:33 UTC. Time now 2016-Apr-30 20:44 UTC.
Position N 51°49' E 004°42'.

Length 135 m; draft 2.5 m.

Type: Ship. MMSI: 244670975.

Date/timePositionNaut miles runAvg speedWind from/ knotsBaromVisibWave heightAir tempDewpointWater temp
2016-Apr-30 20:33N 51°49' E 004°42'0 0.0
2016-Apr-30 19:33N 51°49' E 004°42'0 0.0
2016-Apr-30 18:34N 51°49' E 004°42'0 0.0
2016-Apr-30 17:33N 51°49' E 004°42'0 0.0
2016-Apr-30 16:33N 51°49' E 004°42'0 0.0
2016-Apr-30 15:33N 51°49' E 004°42'0 0.0
2016-Apr-30 14:33N 51°49' E 004°42'0 0.0
2016-Apr-30 13:33N 51°49' E 004°42'0 0.0
2016-Apr-30 12:33N 51°49' E 004°42'0 0.0
2016-Apr-30 11:33N 51°49' E 004°42'0 0.0
2016-Apr-30 10:33N 51°49' E 004°42'0 0.0
2016-Apr-30 09:33N 51°49' E 004°42'0 0.0
2016-Apr-30 08:33N 51°49' E 004°42'0 0.0
2016-Apr-30 07:33N 51°49' E 004°42'0 0.0
2016-Apr-30 06:33N 51°49' E 004°42'0 0.0
2016-Apr-30 05:33N 51°49' E 004°42'0 0.0
2016-Apr-30 04:33N 51°49' E 004°42'0 0.0
2016-Apr-30 03:33N 51°49' E 004°42'0 0.0
2016-Apr-30 02:33N 51°49' E 004°42'0 0.0
2016-Apr-30 01:33N 51°49' E 004°42'0 0.0
2016-Apr-30 00:33N 51°49' E 004°42'0 0.0
2016-Apr-29 23:33N 51°49' E 004°42'0 0.0
2016-Apr-29 22:33N 51°49' E 004°42'0 0.0
2016-Apr-29 21:33N 51°49' E 004°42'0 0.0
2016-Apr-29 20:33N 51°49' E 004°42'0 0.0
2016-Apr-29 19:33N 51°49' E 004°42'0 0.0
2016-Apr-29 18:33N 51°49' E 004°42'0 0.0
2016-Apr-29 17:33N 51°49' E 004°42'0 0.0
2016-Apr-29 16:33N 51°49' E 004°42'0 0.0
2016-Apr-29 15:33N 51°49' E 004°42'0 0.0
2016-Apr-29 14:33N 51°49' E 004°42'0 0.0
2016-Apr-29 13:33N 51°49' E 004°42'0 0.0
2016-Apr-29 12:33N 51°49' E 004°42'0 0.0
2016-Apr-29 11:33N 51°49' E 004°42'0 0.0
2016-Apr-29 10:33N 51°49' E 004°42'0 0.0
2016-Apr-29 09:33N 51°49' E 004°42'0 0.0
2016-Apr-29 07:26N 51°49' E 004°42'0 0.0
2016-Apr-29 06:31N 51°49' E 004°42'0 0.0
2016-Apr-29 05:33N 51°49' E 004°42'0 0.0
2016-Apr-29 03:33N 51°49' E 004°42'0 0.0
2016-Apr-29 02:31N 51°49' E 004°42'0 0.0
2016-Apr-29 01:28N 51°49' E 004°42'0 0.0
2016-Apr-28 19:23N 51°49' E 004°42'0 0.0
2016-Apr-28 04:24N 51°49' E 004°42'0 0.0
2016-Apr-28 03:26N 51°49' E 004°42'0 0.0
2016-Apr-28 02:32N 51°49' E 004°42'0 0.0
2016-Apr-28 01:33N 51°49' E 004°42'0 0.0
2016-Apr-28 00:21N 51°49' E 004°42'0 0.0
2016-Apr-27 23:24N 51°49' E 004°42'0 0.0
2016-Apr-27 22:29N 51°49' E 004°42'0 0.0
2016-Apr-27 21:32N 51°49' E 004°42'0 0.0
2016-Apr-27 20:16N 51°49' E 004°42'0 0.0
2016-Apr-27 17:32N 51°49' E 004°42'0 0.0
2016-Apr-27 16:30N 51°49' E 004°42'0 0.0
2016-Apr-27 15:26N 51°49' E 004°42'0 0.0
2016-Apr-27 14:23N 51°49' E 004°42'0 0.0
2016-Apr-27 13:32N 51°49' E 004°42'0 0.0
2016-Apr-27 12:33N 51°49' E 004°42'0 0.1
2016-Apr-27 10:32N 51°49' E 004°42'6 6.4
2016-Apr-27 09:32N 51°43' E 004°38'19 5.9
2016-Apr-27 06:15N 51°31' E 004°13'4 4.9
2016-Apr-27 05:30N 51°27' E 004°14'0 0.0
2016-Apr-27 04:33N 51°27' E 004°14'0 0.0
2016-Apr-27 03:30N 51°27' E 004°14'0 0.0
2016-Apr-27 02:33N 51°27' E 004°14'0 0.0
2016-Apr-27 01:31N 51°27' E 004°14'0 0.0
2016-Apr-27 00:32N 51°27' E 004°14'0 0.0
2016-Apr-26 23:33N 51°27' E 004°14'0 0.0
2016-Apr-26 22:33N 51°27' E 004°14'0 0.0
2016-Apr-26 21:33N 51°27' E 004°14'0 0.0
2016-Apr-26 20:32N 51°27' E 004°14'0 0.0
2016-Apr-26 19:33N 51°27' E 004°14'1 1.1
2016-Apr-26 18:31N 51°26' E 004°14'2 1.9
2016-Apr-26 17:33N 51°24' E 004°14'9 8.7
2016-Apr-26 16:33N 51°17' E 004°21'3 2.7
2016-Apr-26 15:33N 51°15' E 004°24'0 0.0
2016-Apr-26 14:33N 51°15' E 004°24'0 0.0
2016-Apr-26 13:33N 51°15' E 004°24'0 0.0
2016-Apr-26 12:33N 51°15' E 004°24'0 0.0
2016-Apr-26 11:33N 51°15' E 004°24'0 0.0
2016-Apr-26 10:33N 51°15' E 004°24'0 0.0
2016-Apr-26 09:33N 51°15' E 004°24'0 0.0
2016-Apr-26 08:33N 51°15' E 004°24'0 0.0
2016-Apr-26 07:33N 51°15' E 004°24'0 0.0
2016-Apr-26 06:33N 51°15' E 004°24'0 0.0
2016-Apr-26 05:33N 51°15' E 004°24'0 0.0
2016-Apr-26 04:33N 51°15' E 004°24'0 0.0
2016-Apr-26 03:33N 51°15' E 004°24'0 0.0
2016-Apr-26 02:33N 51°15' E 004°24'0 0.0
2016-Apr-26 01:33N 51°15' E 004°24'0 0.0
2016-Apr-26 00:33N 51°15' E 004°24'0 0.0
2016-Apr-25 23:33N 51°15' E 004°24'0 0.0
2016-Apr-25 22:33N 51°15' E 004°24'0 0.0
2016-Apr-25 21:33N 51°15' E 004°24'0 0.0
2016-Apr-25 20:33N 51°15' E 004°24'0 0.0
2016-Apr-25 19:33N 51°15' E 004°24'0 0.0
2016-Apr-25 18:33N 51°15' E 004°24'0 0.0
2016-Apr-25 17:33N 51°15' E 004°24'0 0.0
2016-Apr-25 16:33N 51°15' E 004°24'0 0.0
2016-Apr-25 15:33N 51°15' E 004°24'0 0.0
2016-Apr-25 14:33N 51°15' E 004°24'0 0.1
2016-Apr-25 13:33N 51°15' E 004°24'0 0.0
2016-Apr-25 12:33N 51°15' E 004°25'0 0.0
2016-Apr-25 11:33N 51°15' E 004°25'0 0.0
2016-Apr-25 10:33N 51°15' E 004°25'0 0.0
2016-Apr-25 09:33N 51°15' E 004°25'0 0.0
2016-Apr-25 08:33N 51°15' E 004°25'0 0.3
2016-Apr-25 07:33N 51°16' E 004°25'0 0.0
2016-Apr-25 06:33N 51°16' E 004°25'0 0.0
2016-Apr-25 05:33N 51°16' E 004°25'0 0.0
2016-Apr-25 04:33N 51°16' E 004°25'0 0.0
2016-Apr-25 03:33N 51°16' E 004°25'0 0.0
2016-Apr-25 02:33N 51°16' E 004°25'0 0.0
2016-Apr-25 01:33N 51°16' E 004°25'0 0.0
2016-Apr-25 00:33N 51°16' E 004°25'0 0.0
2016-Apr-24 23:33N 51°16' E 004°25'0 0.0
2016-Apr-24 22:33N 51°16' E 004°25'0 0.0
2016-Apr-24 21:33N 51°16' E 004°25'0 0.0
2016-Apr-24 20:33N 51°16' E 004°25'0 0.0
2016-Apr-24 19:33N 51°16' E 004°25'0 0.0
2016-Apr-24 18:33N 51°16' E 004°25'0 0.0
2016-Apr-24 17:33N 51°16' E 004°25'0 0.0
2016-Apr-24 16:33N 51°16' E 004°25'0 0.0
2016-Apr-24 15:33N 51°16' E 004°25'0 0.0
2016-Apr-24 14:33N 51°16' E 004°25'0 0.0
2016-Apr-24 13:33N 51°16' E 004°25'0 0.0
2016-Apr-24 12:33N 51°16' E 004°25'0 0.0
2016-Apr-24 11:33N 51°16' E 004°25'0 0.3
2016-Apr-24 10:33N 51°16' E 004°24'4 4.3
2016-Apr-24 09:33N 51°19' E 004°19'3 2.7
2016-Apr-24 08:33N 51°21' E 004°16'3 2.5
2016-Apr-24 07:33N 51°22' E 004°13'0 0.1
2016-Apr-24 06:33N 51°22' E 004°13'7 6.9
2016-Apr-24 05:33N 51°17' E 004°20'3 2.8
2016-Apr-24 04:33N 51°19' E 004°19'2 2.1
2016-Apr-24 03:33N 51°21' E 004°18'0 0.0
2016-Apr-24 02:33N 51°21' E 004°18'0 0.0
2016-Apr-24 01:33N 51°21' E 004°18'0 0.0
2016-Apr-24 00:33N 51°21' E 004°18'0 0.0
2016-Apr-23 23:31N 51°21' E 004°18'0 0.0
2016-Apr-23 22:33N 51°21' E 004°18'0 0.0
2016-Apr-23 21:33N 51°21' E 004°18'0 0.0
2016-Apr-23 20:33N 51°21' E 004°18'0 0.0
2016-Apr-23 19:33N 51°21' E 004°17'0 0.4
2016-Apr-23 18:28N 51°22' E 004°17'0 0.0
2016-Apr-23 17:33N 51°22' E 004°17'0 0.0
2016-Apr-23 16:33N 51°22' E 004°17'0 0.0
2016-Apr-23 15:29N 51°22' E 004°17'0 0.0
2016-Apr-23 14:33N 51°22' E 004°17'0 0.0
2016-Apr-23 13:33N 51°22' E 004°17'0 0.0
2016-Apr-23 12:33N 51°22' E 004°17'0 0.0
2016-Apr-23 11:33N 51°22' E 004°17'0 0.0
2016-Apr-23 10:32N 51°22' E 004°17'0 0.0
2016-Apr-23 09:26N 51°22' E 004°17'0 0.0
2016-Apr-23 08:32N 51°22' E 004°17'0 0.0
2016-Apr-23 07:33N 51°22' E 004°17'0 0.0
2016-Apr-23 06:33N 51°22' E 004°17'0 0.0
2016-Apr-23 05:30N 51°22' E 004°17'0 0.0
2016-Apr-23 04:33N 51°22' E 004°17'0 0.0
2016-Apr-23 03:33N 51°22' E 004°17'0 0.0
2016-Apr-23 02:33N 51°22' E 004°17'0 0.0
2016-Apr-23 01:31N 51°22' E 004°17'0 0.0
2016-Apr-23 00:33N 51°22' E 004°17'0 0.1
2016-Apr-22 23:33N 51°22' E 004°17'0 0.0
2016-Apr-22 22:33N 51°22' E 004°17'0 0.0
2016-Apr-22 21:33N 51°22' E 004°17'0 0.0
2016-Apr-22 20:33N 51°22' E 004°17'0 0.0
2016-Apr-22 19:33N 51°22' E 004°17'1 0.8
2016-Apr-22 18:31N 51°22' E 004°18'6 5.6
2016-Apr-22 17:32N 51°27' E 004°14'3 3.3
2016-Apr-22 16:33N 51°30' E 004°16'0 0.0
2016-Apr-22 15:33N 51°30' E 004°16'0 0.0
2016-Apr-22 14:31N 51°30' E 004°16'0 0.0
2016-Apr-22 13:32N 51°30' E 004°16'0 0.0
2016-Apr-22 12:33N 51°30' E 004°16'0 0.0
2016-Apr-22 11:19N 51°30' E 004°16'0 0.0
2016-Apr-22 10:32N 51°30' E 004°16'0 0.0
2016-Apr-22 08:33N 51°30' E 004°16'0 0.1
2016-Apr-22 04:30N 51°30' E 004°15'0 0.0
2016-Apr-22 00:19N 51°30' E 004°15'0 0.0
2016-Apr-21 23:03N 51°30' E 004°15'0 0.5
2016-Apr-21 22:25N 51°30' E 004°14'4 3.7
2016-Apr-21 21:22N 51°34' E 004°13'17 5.9
2016-Apr-21 18:27N 51°43' E 004°37'9 9.0
2016-Apr-21 17:30N 51°48' E 004°48'66 8.2
2016-Apr-21 09:33N 51°40' E 006°33'7 7.2
2016-Apr-21 08:33N 51°34' E 006°41'8 7.8
2016-Apr-21 07:32N 51°27' E 006°43'7 7.1
2016-Apr-21 06:32N 51°19' E 006°44'7 6.9
2016-Apr-21 05:33N 51°13' E 006°44'7 6.4
2016-Apr-21 04:32N 51°08' E 006°51'  

Dump ship's entire track history